Time;durP1;ratioP1;P1;durP2;ratioP2;P2;SDS_P1;SDS_P2;PMS_P1;PMS_P2;Temp;Humidity;BMP_temperature;BMP_pressure;BME280_temperature;BME280_humidity;BME280_pressure;Samples;Min_cycle;Max_cycle;Signal;HPM_P1;HPM_P2
2022/05/27 00:02:19;;;;;;;;;2.00;2.00;;;;;16.11;57.29;101665.78;4956777;28;45394;-71
2022/05/27 00:04:44;;;;;;;;;2.00;2.00;;;;;16.05;57.30;101656.34;4955134;28;45324;-68
2022/05/27 00:07:10;;;;;;;;;3.75;3.75;;;;;16.06;57.25;101650.09;4956119;28;45355;-71
2022/05/27 00:09:35;;;;;;;;;1.00;1.00;;;;;16.04;57.60;101644.84;4955494;28;45744;-69
2022/05/27 00:12:00;;;;;;;;;2.00;2.00;;;;;16.03;57.51;101658.19;4955197;28;45218;-70
2022/05/27 00:14:26;;;;;;;;;1.00;1.00;;;;;16.02;57.71;101653.81;4957909;28;45171;-71
2022/05/27 00:16:51;;;;;;;;;2.50;2.50;;;;;16.00;57.70;101653.03;4961452;28;45165;-71
2022/05/27 00:19:17;;;;;;;;;4.00;2.25;;;;;16.01;57.86;101655.59;4955858;28;45157;-70
2022/05/27 00:21:43;;;;;;;;;3.00;2.75;;;;;15.99;57.68;101654.81;4953778;28;46248;-69
2022/05/27 00:24:08;;;;;;;;;2.25;2.25;;;;;16.01;57.71;101650.28;4954875;28;45342;-70
2022/05/27 00:26:34;;;;;;;;;4.00;2.00;;;;;15.98;57.89;101639.81;4954923;28;45289;-70
2022/05/27 00:28:59;;;;;;;;;1.50;1.50;;;;;15.99;57.94;101648.66;4955186;28;45645;-69
2022/05/27 00:31:24;;;;;;;;;1.00;1.00;;;;;15.95;58.16;101644.44;4955095;28;46278;-71
2022/05/27 00:33:50;;;;;;;;;0.00;0.00;;;;;15.89;58.45;101638.44;4955646;28;45422;-70
2022/05/27 00:36:15;;;;;;;;;2.00;2.00;;;;;15.88;58.37;101628.75;4955745;28;45805;-70
2022/05/27 00:38:42;;;;;;;;;2.75;1.75;;;;;15.89;58.41;101626.97;4954476;28;45719;-70
2022/05/27 00:41:09;;;;;;;;;2.25;2.25;;;;;15.93;58.09;101619.75;4954876;28;45302;-69
2022/05/27 00:43:34;;;;;;;;;1.00;1.00;;;;;15.86;58.52;101624.44;4954733;28;45406;-69
2022/05/27 00:46:11;;;;;;;;;3.00;2.00;;;;;15.77;58.40;101620.41;4956987;28;45329;-70
2022/05/27 00:48:38;;;;;;;;;1.75;1.75;;;;;15.62;58.70;101609.56;4958069;28;45245;-70
2022/05/27 00:51:14;;;;;;;;;2.50;2.00;;;;;15.61;58.76;101615.78;4955198;28;45418;-69
2022/05/27 00:54:03;;;;;;;;;2.00;2.00;;;;;15.52;59.10;101610.91;4956634;28;45474;-70
2022/05/27 00:56:34;;;;;;;;;2.00;2.00;;;;;15.47;59.37;101626.16;4941872;28;45462;-70
2022/05/27 00:59:07;;;;;;;;;1.25;1.25;;;;;15.43;59.44;101637.81;4955868;28;45163;-69
2022/05/27 01:01:33;;;;;;;;;1.00;1.00;;;;;15.31;59.70;101621.53;4954651;28;46905;-69
2022/05/27 01:04:01;;;;;;;;;2.00;2.00;;;;;15.26;59.78;101614.69;4954426;28;45254;-70
2022/05/27 01:06:27;;;;;;;;;2.25;1.50;;;;;15.29;59.88;101628.69;4954585;28;45370;-71
2022/05/27 01:08:54;;;;;;;;;3.75;2.00;;;;;15.25;60.27;101616.50;4953499;28;45889;-70
2022/05/27 01:11:33;;;;;;;;;2.50;2.00;;;;;15.21;60.39;101621.97;4954981;28;46332;-70
2022/05/27 01:14:43;;;;;;;;;4.50;2.00;;;;;15.14;60.58;101627.53;4955533;28;45196;-70
2022/05/27 01:17:23;;;;;;;;;3.75;2.50;;;;;15.10;60.69;101625.09;4976588;28;45275;-70
2022/05/27 01:20:19;;;;;;;;;2.00;2.00;;;;;15.02;61.16;101623.66;4955597;28;45285;-71
2022/05/27 01:23:19;;;;;;;;;1.00;1.00;;;;;14.97;61.59;101615.03;4954417;28;46043;-70
2022/05/27 01:25:53;;;;;;;;;4.25;3.00;;;;;14.93;61.41;101620.50;5034081;28;45292;-70
2022/05/27 01:28:52;;;;;;;;;6.00;6.00;;;;;14.88;61.60;101610.97;4966451;28;45478;-70
2022/05/27 01:31:41;;;;;;;;;4.00;4.00;;;;;14.86;61.79;101612.81;4955409;28;45671;-70
2022/05/27 01:34:17;;;;;;;;;2.25;2.25;;;;;14.83;62.22;101606.78;4953801;28;45307;-70
2022/05/27 01:37:07;;;;;;;;;4.00;3.75;;;;;14.83;61.93;101618.25;4953552;28;45455;-69
2022/05/27 01:39:46;;;;;;;;;4.00;2.00;;;;;14.81;62.51;101619.22;4955231;28;45347;-70
2022/05/27 01:42:30;;;;;;;;;2.50;2.00;;;;;14.80;62.41;101610.44;4954969;28;45354;-70
2022/05/27 01:45:19;;;;;;;;;3.00;2.00;;;;;14.79;62.68;101610.47;4953049;28;46356;-70
2022/05/27 01:48:03;;;;;;;;;2.50;2.50;;;;;14.77;62.51;101615.84;4954916;28;45367;-71
2022/05/27 01:50:51;;;;;;;;;2.75;2.75;;;;;14.77;62.77;101612.31;4954850;28;45313;-70
2022/05/27 01:53:26;;;;;;;;;1.00;1.00;;;;;14.73;63.29;101620.41;4954424;28;45233;-70
2022/05/27 01:56:00;;;;;;;;;2.00;2.00;;;;;14.60;63.23;101600.63;4954042;28;46055;-70
2022/05/27 01:58:41;;;;;;;;;4.75;3.00;;;;;14.67;63.22;101610.03;4954365;28;45254;-69
2022/05/27 02:01:11;;;;;;;;;3.25;3.25;;;;;14.66;63.38;101613.59;4956292;28;45369;-70
2022/05/27 02:03:42;;;;;;;;;3.00;1.75;;;;;14.63;63.30;101615.53;4954621;28;45574;-70
2022/05/27 02:06:14;;;;;;;;;2.75;2.75;;;;;14.64;63.57;101611.97;4953822;28;46547;-69
2022/05/27 02:09:05;;;;;;;;;2.50;2.50;;;;;14.60;63.62;101609.44;4953770;28;45193;-70
2022/05/27 02:11:32;;;;;;;;;2.00;2.00;;;;;14.41;63.82;101582.84;4952962;28;45738;-70
2022/05/27 02:14:00;;;;;;;;;2.50;2.50;;;;;14.55;63.79;101611.41;4955750;28;45271;-71
2022/05/27 02:16:50;;;;;;;;;4.00;2.50;;;;;14.52;63.42;101602.72;4956390;28;45617;-69
2022/05/27 02:19:31;;;;;;;;;2.75;2.75;;;;;14.49;63.26;101603.72;4953832;28;45315;-70
2022/05/27 02:22:03;;;;;;;;;3.25;3.25;;;;;14.46;63.62;101596.75;4955871;28;45317;-70
2022/05/27 02:24:52;;;;;;;;;3.00;3.00;;;;;14.47;63.40;101602.91;4953816;28;45224;-69
2022/05/27 02:27:25;;;;;;;;;4.00;3.75;;;;;14.45;63.82;101612.72;4952119;28;47032;-69
2022/05/27 02:29:54;;;;;;;;;3.50;2.00;;;;;14.44;63.99;101606.53;4953358;28;45418;-71
2022/05/27 02:32:44;;;;;;;;;2.00;2.00;;;;;14.44;64.01;101603.88;4953448;28;45364;-69
2022/05/27 02:35:13;;;;;;;;;3.00;3.00;;;;;14.52;63.70;101613.31;4953529;28;45370;-70
2022/05/27 02:37:45;;;;;;;;;3.00;3.00;;;;;14.55;63.77;101603.47;4953403;28;45379;-70
2022/05/27 02:40:16;;;;;;;;;3.25;3.25;;;;;14.60;63.71;101606.78;4953917;28;45454;-70
2022/05/27 02:43:20;;;;;;;;;3.50;3.50;;;;;14.63;63.84;101608.44;4955807;28;45161;-69
2022/05/27 02:46:17;;;;;;;;;3.00;2.00;;;;;14.66;63.61;101610.09;4955739;28;45181;-70
2022/05/27 02:48:52;;;;;;;;;4.50;2.25;;;;;14.68;63.40;101603.81;4952456;28;45562;-69
2022/05/27 02:51:32;;;;;;;;;6.00;3.00;;;;;14.73;63.09;101611.59;4955596;28;45362;-70
2022/05/27 02:54:22;;;;;;;;;4.00;2.00;;;;;14.76;62.87;101603.53;5057973;28;45303;-70
2022/05/27 02:57:07;;;;;;;;;5.00;3.00;;;;;14.80;62.91;101609.56;4954158;28;45294;-70
2022/05/27 02:59:35;;;;;;;;;2.75;2.75;;;;;14.79;62.29;101608.72;4953199;28;46145;-71
2022/05/27 03:02:09;;;;;;;;;4.00;4.00;;;;;14.77;62.78;101607.03;4953143;28;45392;-69
2022/05/27 03:04:39;;;;;;;;;3.00;3.00;;;;;14.79;62.61;101611.34;4954801;28;45386;-70
2022/05/27 03:07:36;;;;;;;;;2.50;2.50;;;;;14.73;62.60;101603.66;4953029;28;45579;-70
2022/05/27 03:10:39;;;;;;;;;3.00;3.00;;;;;14.72;62.76;101610.72;4953100;28;45343;-69
2022/05/27 03:13:32;;;;;;;;;4.00;2.50;;;;;14.71;62.95;101610.81;4954337;28;45305;-71
2022/05/27 03:16:25;;;;;;;;;3.75;3.75;;;;;14.70;63.05;101609.09;4958710;28;45469;-70
2022/05/27 03:19:06;;;;;;;;;5.00;5.00;;;;;14.68;63.67;101606.47;5054531;28;45470;-70
2022/05/27 03:21:52;;;;;;;;;7.00;4.00;;;;;14.69;63.50;101607.34;4952080;28;45617;-69
2022/05/27 03:24:35;;;;;;;;;3.25;2.75;;;;;14.73;63.27;101612.47;4956476;28;45218;-70
2022/05/27 03:27:09;;;;;;;;;4.00;4.00;;;;;14.71;64.07;101619.59;4953174;28;45205;-69
2022/05/27 03:29:48;;;;;;;;;2.25;2.00;;;;;14.70;63.70;101606.44;4953267;28;45383;-70
2022/05/27 03:32:28;;;;;;;;;2.75;2.75;;;;;14.75;63.84;101620.34;4952664;28;47120;-69
2022/05/27 03:35:08;;;;;;;;;4.50;4.50;;;;;14.78;63.83;101608.75;4953007;28;45504;-70
2022/05/27 03:37:48;;;;;;;;;3.00;3.00;;;;;14.77;63.88;101607.03;4953283;28;45257;-70
2022/05/27 03:40:23;;;;;;;;;4.00;4.00;;;;;14.75;64.19;101602.66;4955455;28;45444;-69
2022/05/27 03:42:50;;;;;;;;;3.25;3.00;;;;;14.73;63.94;101598.38;4955213;28;46189;-69
2022/05/27 03:45:20;;;;;;;;;4.00;2.00;;;;;14.68;64.12;101602.97;4956828;28;45267;-70
2022/05/27 03:47:45;;;;;;;;;3.00;3.00;;;;;14.67;64.07;101607.38;4952303;28;45296;-69
2022/05/27 03:50:15;;;;;;;;;4.00;4.00;;;;;14.68;64.28;101613.56;4953399;28;45461;-70
2022/05/27 03:52:43;;;;;;;;;7.00;5.00;;;;;14.63;64.23;101613.72;4952712;28;46258;-69
2022/05/27 03:55:11;;;;;;;;;7.25;6.25;;;;;14.65;63.96;101616.34;4952374;28;45181;-70
2022/05/27 03:57:37;;;;;;;;;7.50;7.50;;;;;14.64;63.70;101614.59;4951599;28;45360;-70
2022/05/27 04:00:04;;;;;;;;;7.00;7.00;;;;;14.63;63.85;101616.38;4953015;28;45558;-69
2022/05/27 04:02:29;;;;;;;;;10.75;9.00;;;;;14.62;64.27;101612.00;4951609;28;47723;-69
2022/05/27 04:04:55;;;;;;;;;8.25;8.00;;;;;14.64;63.76;101606.66;4951295;28;45506;-70
2022/05/27 04:07:20;;;;;;;;;8.50;6.75;;;;;14.64;63.90;101607.50;4955299;28;45357;-71
2022/05/27 04:09:45;;;;;;;;;7.25;7.25;;;;;14.65;63.93;101603.09;4952756;28;45313;-69
2022/05/27 04:12:12;;;;;;;;;7.25;6.00;;;;;14.68;64.03;101616.19;4952082;28;50592;-70
2022/05/27 04:14:37;;;;;;;;;9.00;6.00;;;;;14.65;63.82;101606.59;4952444;28;45334;-70
2022/05/27 04:19:47;;;;;;;;;9.75;8.50;;;;;14.69;63.88;101616.13;4956118;28;45419;-70
2022/05/27 04:22:13;;;;;;;;;8.50;8.50;;;;;14.72;64.00;101621.31;4954853;28;47813;-72
2022/05/27 04:24:39;;;;;;;;;10.25;7.50;;;;;14.73;63.71;101617.75;4956984;28;45296;-70
2022/05/27 04:27:10;;;;;;;;;7.25;6.00;;;;;14.74;63.89;101623.94;4957062;28;45236;-70
2022/05/27 04:29:49;;;;;;;;;7.75;6.00;;;;;14.78;63.81;101629.94;4957704;28;45461;-70
2022/05/27 04:32:14;;;;;;;;;9.50;9.00;;;;;14.76;64.10;101627.38;4958090;28;46318;-70
2022/05/27 04:34:43;;;;;;;;;7.50;7.50;;;;;14.72;63.91;101631.06;4954395;28;45230;-70
2022/05/27 04:37:10;;;;;;;;;8.25;7.50;;;;;14.65;64.16;101619.81;4955830;28;45359;-70
2022/05/27 04:39:37;;;;;;;;;11.50;9.25;;;;;14.67;64.38;101625.91;4955065;28;45234;-69
2022/05/27 04:42:03;;;;;;;;;15.25;9.25;;;;;14.69;64.31;101625.88;4957858;28;45428;-70
2022/05/27 04:44:28;;;;;;;;;10.50;9.50;;;;;14.75;64.12;101623.84;4954439;28;45379;-70
2022/05/27 04:46:54;;;;;;;;;11.75;9.75;;;;;14.71;64.08;101619.59;4956579;28;45178;-71
2022/05/27 04:52:03;;;;;;;;;13.25;9.00;;;;;14.75;63.88;101615.91;4955360;28;45333;-71
2022/05/27 04:54:29;;;;;;;;;12.75;11.00;;;;;14.77;64.39;101618.50;4955446;28;45251;-70
2022/05/27 04:56:56;;;;;;;;;11.00;9.25;;;;;14.78;64.40;101625.53;4955362;28;45224;-69
2022/05/27 04:59:22;;;;;;;;;11.25;8.00;;;;;14.76;64.30;101630.03;4956858;28;45598;-71
2022/05/27 05:01:48;;;;;;;;;9.75;9.75;;;;;14.73;64.38;101628.34;4955617;28;47803;-71
2022/05/27 05:04:13;;;;;;;;;9.25;8.75;;;;;14.77;64.34;101628.22;4957932;28;45381;-70
2022/05/27 05:06:39;;;;;;;;;8.25;8.25;;;;;14.80;64.48;101630.75;4959341;28;45433;-70
2022/05/27 05:09:05;;;;;;;;;8.75;8.75;;;;;14.82;64.49;101620.94;4959132;28;45599;-72
2022/05/27 05:11:30;;;;;;;;;12.00;10.00;;;;;14.83;64.26;101631.50;4956767;28;45480;-70
2022/05/27 05:13:55;;;;;;;;;9.75;9.75;;;;;14.83;64.48;101627.97;4957164;28;45293;-70
2022/05/27 05:16:21;;;;;;;;;10.75;7.50;;;;;14.82;64.53;101623.59;4957870;28;45222;-71
2022/05/27 05:18:46;;;;;;;;;8.25;8.25;;;;;14.70;64.63;101617.88;4954758;28;45659;-70
2022/05/27 05:21:12;;;;;;;;;7.00;7.00;;;;;14.75;64.82;101641.53;4956490;28;45202;-70
2022/05/27 05:23:38;;;;;;;;;11.00;9.50;;;;;14.70;64.82;101631.13;4956687;28;45269;-70
2022/05/27 05:26:04;;;;;;;;;11.75;10.25;;;;;14.59;64.97;101622.72;4956112;28;45201;-70
2022/05/27 05:28:29;;;;;;;;;7.75;6.00;;;;;14.72;65.09;101636.38;4956122;28;45259;-70
2022/05/27 05:30:55;;;;;;;;;7.50;7.50;;;;;14.70;64.74;101628.47;4957824;28;46047;-71
2022/05/27 05:33:20;;;;;;;;;8.25;8.25;;;;;14.72;65.16;101625.78;5057273;27;45340;-71
2022/05/27 05:35:46;;;;;;;;;10.00;8.25;;;;;14.77;65.32;101634.41;4956561;28;45490;-72
2022/05/27 05:38:12;;;;;;;;;10.25;10.25;;;;;14.84;65.07;101621.75;4956543;28;45565;-70
2022/05/27 05:40:39;;;;;;;;;10.25;9.25;;;;;14.90;64.91;101637.41;4955034;28;47129;-70
2022/05/27 05:43:04;;;;;;;;;13.00;8.75;;;;;14.87;64.94;101635.75;4958071;28;45345;-70
2022/05/27 05:45:30;;;;;;;;;12.00;10.50;;;;;14.81;65.29;101638.63;4957436;28;45229;-70
2022/05/27 05:47:56;;;;;;;;;13.75;11.00;;;;;14.78;65.31;101635.25;4958975;28;45608;-69
2022/05/27 05:50:22;;;;;;;;;14.50;11.75;;;;;14.79;65.49;101631.66;4954967;28;46338;-71
2022/05/27 05:52:48;;;;;;;;;13.00;10.00;;;;;14.81;65.61;101635.13;4958449;28;45166;-72
2022/05/27 05:55:15;;;;;;;;;12.00;12.00;;;;;14.79;65.29;101634.31;4956925;28;45389;-73
2022/05/27 05:57:43;;;;;;;;;12.25;11.00;;;;;14.81;65.53;101637.75;4954633;28;45423;-70
2022/05/27 06:00:16;;;;;;;;;14.00;12.50;;;;;14.83;65.33;101633.25;4953601;28;46253;-70
2022/05/27 06:02:41;;;;;;;;;11.25;10.25;;;;;14.84;65.38;101637.63;4953342;28;45403;-71
2022/05/27 06:05:08;;;;;;;;;16.75;12.75;;;;;14.87;65.44;101637.53;4954068;28;45518;-71
2022/05/27 06:07:33;;;;;;;;;15.50;13.75;;;;;14.86;65.62;101631.38;4954912;28;45278;-70
2022/05/27 06:09:59;;;;;;;;;13.00;11.75;;;;;14.87;65.76;101632.25;4953761;28;46211;-69
2022/05/27 06:12:25;;;;;;;;;13.75;13.00;;;;;14.85;65.66;101629.66;4955647;28;45474;-71
2022/05/27 06:14:51;;;;;;;;;16.50;14.00;;;;;14.89;65.57;101635.69;4955307;28;45204;-70
2022/05/27 06:17:17;;;;;;;;;16.00;16.00;;;;;14.91;65.58;101639.13;4954576;28;45169;-70
2022/05/27 06:19:42;;;;;;;;;15.75;13.00;;;;;14.88;65.47;101636.63;4953724;28;45189;-70
2022/05/27 06:22:08;;;;;;;;;14.50;14.50;;;;;14.83;65.72;101638.56;4954044;28;45305;-69
2022/05/27 06:24:33;;;;;;;;;16.50;15.75;;;;;14.86;65.68;101641.13;4952749;28;45289;-71
2022/05/27 06:26:59;;;;;;;;;15.75;15.75;;;;;14.88;65.96;101634.81;4955018;28;45624;-71
2022/05/27 06:34:52;;;;;;;;;14.75;14.75;;;;;15.07;65.40;101644.63;4958473;28;45391;-72
2022/05/27 06:37:21;;;;;;;;;13.75;12.25;;;;;15.14;65.37;101650.56;4960420;28;45517;-70
2022/05/27 06:39:47;;;;;;;;;13.50;13.50;;;;;15.18;65.43;101646.84;4955546;28;48487;-72
2022/05/27 06:42:15;;;;;;;;;12.00;12.00;;;;;15.21;65.52;101651.13;4955626;28;45341;-74
2022/05/27 06:44:41;;;;;;;;;18.75;15.50;;;;;15.19;65.20;101652.06;4965647;28;45328;-75
2022/05/27 06:47:08;;;;;;;;;11.50;11.00;;;;;15.21;65.36;101654.66;4972365;28;45351;-71
2022/05/27 06:49:36;;;;;;;;;8.00;8.00;;;;;15.20;65.68;101647.63;4972124;28;46928;-73
2022/05/27 06:52:01;;;;;;;;;8.75;7.50;;;;;15.21;65.61;101649.38;4971438;28;45496;-71
2022/05/27 06:54:27;;;;;;;;;7.00;7.00;;;;;15.19;65.72;101644.13;4968806;28;45529;-70
2022/05/27 06:56:52;;;;;;;;;7.50;7.25;;;;;15.23;65.19;101651.94;4975603;28;45445;-70
2022/05/27 06:59:20;;;;;;;;;9.50;8.25;;;;;15.29;65.57;101655.19;5037789;28;46316;-71
2022/05/27 07:01:46;;;;;;;;;8.25;8.25;;;;;15.33;65.63;101654.13;5019811;28;45316;-70
2022/05/27 07:04:12;;;;;;;;;7.25;7.00;;;;;15.40;65.27;101648.56;4965254;28;45228;-71
2022/05/27 07:06:43;;;;;;;;;9.00;9.00;;;;;15.45;65.52;101652.75;4952728;28;45473;-70
2022/05/27 07:09:11;;;;;;;;;10.00;8.00;;;;;15.54;65.24;101647.97;5055703;28;47083;-70
2022/05/27 07:11:39;;;;;;;;;7.50;7.50;;;;;15.52;65.21;101644.53;5023751;27;45565;-69
2022/05/27 07:14:04;;;;;;;;;9.00;7.75;;;;;15.51;65.30;101645.47;4972543;28;45487;-73
2022/05/27 07:16:30;;;;;;;;;11.25;9.50;;;;;15.56;65.17;101657.56;4990380;27;45565;-72
2022/05/27 07:18:56;;;;;;;;;8.00;8.00;;;;;15.61;65.09;101652.06;5074569;27;46956;-72
2022/05/27 07:21:22;;;;;;;;;9.75;8.00;;;;;15.72;64.86;101659.53;4978667;28;45352;-71
2022/05/27 07:23:47;;;;;;;;;11.50;11.50;;;;;15.86;64.95;101654.47;4973590;28;45348;-72
2022/05/27 07:26:13;;;;;;;;;11.00;11.00;;;;;16.03;64.19;101644.94;4973210;28;45462;-72
2022/05/27 07:28:38;;;;;;;;;12.25;12.25;;;;;16.17;64.07;101644.28;5055963;28;45516;-74
2022/05/27 07:31:04;;;;;;;;;13.00;13.00;;;;;16.38;63.78;101639.75;4998780;27;45641;-73
2022/05/27 07:33:29;;;;;;;;;8.00;8.00;;;;;16.71;63.28;101636.38;4973289;28;45335;-72
2022/05/27 07:35:55;;;;;;;;;10.75;10.25;;;;;16.99;62.29;101648.34;4980370;28;45505;-71
2022/05/27 07:38:20;;;;;;;;;13.25;10.25;;;;;17.15;61.83;101652.88;4970074;28;46198;-72
2022/05/27 07:40:45;;;;;;;;;12.00;10.00;;;;;17.28;61.18;101645.13;4971289;28;45431;-72
2022/05/27 07:43:12;;;;;;;;;12.25;11.00;;;;;17.44;60.92;101651.34;4972419;28;45476;-71
2022/05/27 07:45:40;;;;;;;;;11.50;11.00;;;;;17.57;60.63;101646.28;4971743;28;45276;-70
2022/05/27 07:48:06;;;;;;;;;8.75;8.75;;;;;17.60;59.95;101647.91;4971311;28;46130;-70
2022/05/27 07:50:32;;;;;;;;;12.50;10.75;;;;;17.61;59.94;101639.84;4971513;28;45358;-71
2022/05/27 07:52:58;;;;;;;;;14.75;12.50;;;;;17.75;59.80;101648.88;4970229;28;45470;-72
2022/05/27 07:55:24;;;;;;;;;13.75;10.75;;;;;17.84;59.36;101645.72;4974282;28;45338;-70
2022/05/27 07:57:49;;;;;;;;;10.25;10.25;;;;;17.87;58.84;101642.91;4974621;28;45516;-70
2022/05/27 08:00:23;;;;;;;;;15.25;13.75;;;;;17.91;59.02;101647.13;4975824;28;45360;-72
2022/05/27 08:02:48;;;;;;;;;12.50;12.00;;;;;17.81;58.52;101620.16;4972621;28;45879;-69
2022/05/27 08:05:17;;;;;;;;;10.25;10.25;;;;;17.93;58.44;101652.38;4974417;28;45383;-71
2022/05/27 08:07:43;;;;;;;;;10.00;9.50;;;;;17.88;58.80;101646.44;4973344;28;46403;-70
2022/05/27 08:10:11;;;;;;;;;15.75;15.75;;;;;17.89;58.77;101653.47;4974307;28;45556;-70
2022/05/27 08:12:37;;;;;;;;;13.00;13.00;;;;;17.80;58.61;101642.38;4975234;28;45386;-70
2022/05/27 08:15:04;;;;;;;;;13.50;12.25;;;;;17.89;58.55;101659.66;4975078;28;45345;-70
2022/05/27 08:17:30;;;;;;;;;12.50;11.50;;;;;17.86;58.55;101656.31;4974822;28;45479;-72
2022/05/27 08:19:55;;;;;;;;;15.00;11.50;;;;;17.79;58.54;101656.63;4974626;28;45504;-72
2022/05/27 08:22:21;;;;;;;;;10.50;10.50;;;;;17.78;58.87;101656.69;4973362;28;45245;-71
2022/05/27 08:24:46;;;;;;;;;18.00;14.25;;;;;17.75;58.73;101656.88;4973621;28;45373;-72
2022/05/27 08:27:12;;;;;;;;;11.00;10.50;;;;;17.74;58.68;101655.16;4976460;28;45437;-71
2022/05/27 08:29:37;;;;;;;;;22.75;18.50;;;;;17.77;58.68;101650.53;4975547;28;45434;-72
2022/05/27 08:32:04;;;;;;;;;13.25;12.00;;;;;17.78;58.60;101646.94;4976076;28;45323;-73
2022/05/27 08:40:14;;;;;;;;;11.25;9.75;;;;;17.71;59.02;101652.66;4978003;28;45361;-71
2022/05/27 08:43:10;;;;;;;;;10.00;10.00;;;;;17.63;59.22;101655.75;4978620;28;45393;-72
2022/05/27 08:46:02;;;;;;;;;12.25;10.25;;;;;17.66;59.60;101653.75;4975361;28;45470;-72
2022/05/27 08:48:33;;;;;;;;;10.25;7.50;;;;;17.58;59.42;101647.16;4971735;28;47463;-72
2022/05/27 08:51:04;;;;;;;;;10.25;9.50;;;;;17.51;59.78;101649.25;4974844;28;45411;-71
2022/05/27 08:53:51;;;;;;;;;13.50;12.25;;;;;17.50;59.96;101659.06;4975068;28;45478;-72
2022/05/27 08:59:31;;;;;;;;;9.50;8.25;;;;;17.51;60.06;101643.94;4973811;28;45886;-73
2022/05/27 09:02:10;;;;;;;;;9.75;9.00;;;;;17.58;60.06;101655.97;4975035;28;45387;-73
2022/05/27 09:04:55;;;;;;;;;9.00;7.75;;;;;17.64;60.16;101652.97;4975980;28;45265;-72
2022/05/27 09:07:26;;;;;;;;;6.50;6.00;;;;;17.69;60.19;101655.41;4974422;28;45179;-71
2022/05/27 09:09:53;;;;;;;;;9.00;7.00;;;;;17.59;60.48;101659.50;4973813;28;45416;-72
2022/05/27 09:12:24;;;;;;;;;16.50;16.00;;;;;17.53;60.65;101660.66;4973371;28;45318;-70
2022/05/27 09:15:17;;;;;;;;;9.00;7.75;;;;;17.57;60.57;101664.03;4954394;28;45405;-72
2022/05/27 09:17:48;;;;;;;;;8.00;8.00;;;;;17.53;60.88;101660.66;4945008;28;45292;-71
2022/05/27 09:20:27;;;;;;;;;6.75;6.75;;;;;17.51;61.10;101662.56;4953856;28;46291;-71
2022/05/27 09:22:59;;;;;;;;;7.00;7.00;;;;;17.50;60.97;101664.38;4952856;28;45455;-70
2022/05/27 09:25:55;;;;;;;;;11.00;8.75;;;;;17.53;61.16;101663.34;4954009;28;45616;-71
2022/05/27 09:28:48;;;;;;;;;10.00;8.25;;;;;17.63;61.17;101661.91;4956314;28;45368;-71
2022/05/27 09:31:24;;;;;;;;;10.00;6.25;;;;;17.69;61.12;101652.75;4954332;28;46417;-71
2022/05/27 09:33:54;;;;;;;;;7.25;7.25;;;;;17.75;61.11;101662.19;4954253;28;45579;-71
2022/05/27 09:36:28;;;;;;;;;15.25;11.25;;;;;17.82;61.17;101660.91;4953218;28;45695;-73
2022/05/27 09:38:59;;;;;;;;;8.00;8.00;;;;;17.89;60.77;101654.31;4955492;28;45363;-70
2022/05/27 09:41:43;;;;;;;;;7.75;6.25;;;;;18.03;60.43;101652.78;4956893;28;45430;-71
2022/05/27 09:44:09;;;;;;;;;6.00;6.00;;;;;18.12;60.37;101656.72;4954738;28;45327;-71
2022/05/27 09:46:34;;;;;;;;;8.25;8.00;;;;;18.16;60.12;101651.16;4954004;28;45544;-71
2022/05/27 09:49:00;;;;;;;;;7.50;6.75;;;;;18.31;60.01;101654.75;4954016;28;45263;-70
2022/05/27 09:51:29;;;;;;;;;10.00;9.25;;;;;18.49;60.02;101650.19;4953949;28;46399;-71
2022/05/27 09:54:03;;;;;;;;;10.50;8.75;;;;;18.80;59.36;101651.09;4953026;28;45399;-70
2022/05/27 09:56:55;;;;;;;;;9.50;7.50;;;;;19.04;58.88;101658.63;4954350;28;45501;-72
2022/05/27 09:59:44;;;;;;;;;10.25;8.00;;;;;19.26;58.02;101652.03;4955584;28;45555;-70
2022/05/27 10:02:18;;;;;;;;;12.25;11.75;;;;;19.36;57.68;101655.88;4954481;28;45378;-71
2022/05/27 10:04:54;;;;;;;;;9.75;8.00;;;;;19.34;57.86;101655.09;4956643;28;45325;-71
2022/05/27 10:07:33;;;;;;;;;8.25;8.25;;;;;19.38;57.94;101656.63;4959217;28;45253;-70
2022/05/27 10:10:21;;;;;;;;;5.75;5.75;;;;;19.47;57.32;101644.53;4953554;28;45254;-71
2022/05/27 10:12:47;;;;;;;;;4.75;4.00;;;;;19.63;57.13;101636.44;4954044;28;46177;-73
2022/05/27 10:15:27;;;;;;;;;7.00;7.00;;;;;19.95;57.00;101633.59;4952096;28;45463;-72
2022/05/27 10:17:53;;;;;;;;;8.00;6.50;;;;;20.29;56.11;101625.25;4953853;28;45290;-72
2022/05/27 10:20:29;;;;;;;;;11.75;11.00;;;;;20.64;55.55;101619.38;4955304;28;45485;-70
2022/05/27 10:23:01;;;;;;;;;8.25;7.00;;;;;20.95;55.04;101627.22;4954114;28;46474;-71
2022/05/27 10:25:45;;;;;;;;;11.75;10.50;;;;;21.08;54.11;101628.09;4953556;28;45255;-70
2022/05/27 10:28:30;;;;;;;;;6.50;6.50;;;;;21.21;54.04;101622.75;4954236;28;45207;-72
2022/05/27 10:31:15;;;;;;;;;5.00;5.00;;;;;21.40;53.51;101617.00;4952588;28;45582;-71
2022/05/27 10:33:47;;;;;;;;;9.25;9.00;;;;;21.49;53.40;101626.19;4953833;28;45414;-71
2022/05/27 10:36:47;;;;;;;;;8.25;7.75;;;;;21.57;52.70;101628.34;4953150;28;45401;-71
2022/05/27 10:39:21;;;;;;;;;9.50;8.50;;;;;21.55;52.37;101631.09;4952972;28;45358;-72
2022/05/27 10:42:18;;;;;;;;;11.25;10.00;;;;;21.59;52.71;101629.94;4953751;28;45225;-71
2022/05/27 10:45:16;;;;;;;;;13.75;13.75;;;;;21.53;52.23;101619.66;4952680;28;45708;-72
2022/05/27 10:48:10;;;;;;;;;6.25;6.00;;;;;21.57;52.36;101629.19;4950966;28;45545;-70
2022/05/27 10:51:13;;;;;;;;;10.25;9.00;;;;;21.80;52.21;101633.91;4956278;28;45452;-71
2022/05/27 10:53:44;;;;;;;;;6.75;6.75;;;;;21.93;51.52;101640.09;4953517;28;45477;-72
2022/05/27 10:56:28;;;;;;;;;6.00;6.00;;;;;21.84;51.46;101638.09;4952141;28;46125;-71
2022/05/27 11:02:27;;;;;;;;;6.00;6.00;;;;;21.52;51.59;101641.19;4956167;28;45490;-72
2022/05/27 11:05:32;;;;;;;;;8.00;7.00;;;;;21.36;51.81;101631.56;4972895;28;45545;-72
2022/05/27 11:08:18;;;;;;;;;5.75;5.75;;;;;21.33;52.09;101629.09;4950090;28;45505;-73
2022/05/27 11:11:12;;;;;;;;;8.00;6.00;;;;;21.50;52.09;101637.75;4953444;28;45414;-72
2022/05/27 11:17:04;;;;;;;;;3.25;3.25;;;;;21.80;51.36;101633.91;4952190;28;45228;-71
2022/05/27 11:19:43;;;;;;;;;4.00;4.00;;;;;21.94;51.50;101633.78;4950617;28;46166;-73
2022/05/27 11:22:22;;;;;;;;;5.75;5.75;;;;;22.02;50.63;101634.06;4952129;28;45326;-72
2022/05/27 11:25:00;;;;;;;;;6.75;5.75;;;;;22.01;50.94;101640.41;4956823;28;45501;-72
2022/05/27 11:27:56;;;;;;;;;7.75;6.50;;;;;21.91;51.02;101628.63;4971898;28;45492;-72
2022/05/27 11:30:42;;;;;;;;;7.00;7.00;;;;;21.87;50.79;101628.03;4975021;28;45489;-70
2022/05/27 11:33:20;;;;;;;;;6.50;5.50;;;;;21.74;50.88;101625.34;4974695;28;45186;-70
2022/05/27 11:36:00;;;;;;;;;5.50;5.50;;;;;21.66;51.17;101630.41;4972906;28;45284;-71
2022/05/27 11:38:44;;;;;;;;;5.00;5.00;;;;;21.49;51.57;101630.69;4975406;28;45361;-72
2022/05/27 11:41:18;;;;;;;;;11.25;10.00;;;;;21.38;52.15;101623.41;4975909;28;46051;-70
2022/05/27 11:43:50;;;;;;;;;8.50;8.00;;;;;21.40;51.62;101624.16;4975701;28;45346;-71
2022/05/27 11:46:40;;;;;;;;;4.25;4.25;;;;;21.39;51.78;101617.97;4975226;28;45353;-71
2022/05/27 11:49:24;;;;;;;;;5.00;5.00;;;;;21.62;51.51;101611.94;4977842;28;45421;-72
2022/05/27 11:52:20;;;;;;;;;5.00;5.00;;;;;21.77;51.15;101615.38;4976130;28;46052;-73
2022/05/27 11:55:12;;;;;;;;;9.25;7.50;;;;;21.79;50.97;101610.78;4975463;28;45328;-70
2022/05/27 11:57:44;;;;;;;;;8.25;8.25;;;;;21.67;51.12;101610.69;4976559;28;45282;-71
2022/05/27 12:00:12;;;;;;;;;7.00;6.25;;;;;21.49;51.20;101609.28;4975863;28;45344;-73
2022/05/27 12:02:44;;;;;;;;;5.25;5.25;;;;;21.29;51.37;101604.34;4977257;28;45708;-72
2022/05/27 12:05:25;;;;;;;;;7.25;6.25;;;;;21.14;51.94;101605.41;4976949;28;45223;-71
2022/05/27 12:07:58;;;;;;;;;10.50;9.50;;;;;21.16;51.94;101615.03;4974429;28;45397;-71
2022/05/27 12:10:50;;;;;;;;;8.75;7.50;;;;;21.36;51.83;101607.47;4974451;28;45430;-72
2022/05/27 12:13:34;;;;;;;;;6.75;6.75;;;;;21.42;51.69;101600.81;4975239;28;47114;-70
2022/05/27 12:16:05;;;;;;;;;5.00;4.00;;;;;21.41;51.91;101608.00;4976242;28;45251;-73
2022/05/27 12:18:51;;;;;;;;;7.75;7.75;;;;;21.34;51.59;101601.38;4974540;28;45445;-72